createdAt,value
2018-03-25T00:02:10.625Z,16.73
2018-03-25T00:04:36.765Z,15.70
2018-03-25T00:07:03.021Z,11.00
2018-03-25T00:09:29.449Z,11.50
2018-03-25T00:11:55.964Z,13.67
2018-03-25T00:14:22.260Z,14.10
2018-03-25T00:16:48.472Z,17.03
2018-03-25T00:19:15.529Z,19.67
2018-03-25T00:21:41.746Z,14.30
2018-03-25T00:24:08.782Z,14.73
2018-03-25T00:26:35.716Z,12.70
2018-03-25T00:29:02.075Z,15.03
2018-03-25T00:31:28.451Z,13.17
2018-03-25T00:33:54.759Z,16.63
2018-03-25T00:36:21.045Z,13.70
2018-03-25T00:38:48.077Z,16.30
2018-03-25T00:41:15.996Z,16.27
2018-03-25T00:43:42.368Z,15.97
2018-03-25T00:46:09.398Z,13.00
2018-03-25T00:48:35.578Z,15.67
2018-03-25T00:51:01.802Z,22.50
2018-03-25T00:53:28.277Z,19.83
2018-03-25T00:55:54.671Z,17.40
2018-03-25T00:58:21.055Z,19.70
2018-03-25T01:00:47.475Z,19.87
2018-03-25T01:03:13.881Z,22.17
2018-03-25T01:05:40.164Z,17.47
2018-03-25T01:08:06.450Z,21.53
2018-03-25T01:10:32.756Z,20.00
2018-03-25T01:12:58.963Z,16.37
2018-03-25T01:15:25.196Z,22.70
2018-03-25T01:17:51.443Z,14.93
2018-03-25T01:20:17.679Z,18.07
2018-03-25T01:22:43.908Z,20.70
2018-03-25T01:25:10.095Z,18.13
2018-03-25T01:27:38.580Z,29.77
2018-03-25T01:30:04.735Z,20.80
2018-03-25T01:32:31.185Z,19.47
2018-03-25T01:34:58.363Z,20.20
2018-03-25T01:37:25.373Z,20.10
2018-03-25T01:39:51.635Z,20.03
2018-03-25T01:42:25.077Z,22.13
2018-03-25T01:44:51.470Z,25.63
2018-03-25T01:47:18.349Z,22.60
2018-03-25T01:49:44.560Z,21.87
2018-03-25T01:52:11.505Z,22.47
2018-03-25T01:54:37.724Z,22.67
2018-03-25T01:57:04.633Z,23.60
2018-03-25T01:59:30.800Z,20.03
2018-03-25T02:01:57.007Z,33.53
2018-03-25T02:04:23.947Z,24.47
2018-03-25T02:06:50.875Z,22.90
2018-03-25T02:09:17.970Z,25.30
2018-03-25T02:11:44.277Z,23.40
2018-03-25T02:14:10.462Z,25.37
2018-03-25T02:16:36.680Z,27.33
2018-03-25T02:19:02.910Z,24.97
2018-03-25T02:21:29.302Z,28.43
2018-03-25T02:26:50.568Z,27.30
2018-03-25T02:29:16.806Z,26.07
2018-03-25T02:31:42.965Z,23.77
2018-03-25T02:34:09.535Z,26.27
2018-03-25T02:36:35.962Z,24.57
2018-03-25T02:39:02.884Z,28.73
2018-03-25T02:41:29.093Z,22.40
2018-03-25T02:43:56.033Z,23.53
2018-03-25T02:46:23.095Z,26.30
2018-03-25T02:48:49.317Z,21.83
2018-03-25T02:51:15.639Z,23.80
2018-03-25T02:53:41.827Z,25.37
2018-03-25T02:56:08.016Z,28.10
2018-03-25T02:58:34.483Z,24.97
2018-03-25T03:01:00.811Z,25.53
2018-03-25T03:03:27.108Z,26.63
2018-03-25T03:05:53.326Z,31.43
2018-03-25T03:08:19.548Z,24.00
2018-03-25T03:10:45.876Z,33.73
2018-03-25T03:13:12.163Z,24.90
2018-03-25T03:15:39.124Z,25.03
2018-03-25T03:18:06.061Z,26.17
2018-03-25T03:20:39.350Z,25.00
2018-03-25T03:23:05.656Z,25.17
2018-03-25T03:25:31.827Z,27.23
2018-03-25T03:27:58.826Z,24.87
2018-03-25T03:30:25.027Z,23.57
2018-03-25T03:32:51.515Z,22.50
2018-03-25T03:35:18.629Z,29.80
2018-03-25T03:37:44.940Z,23.67
2018-03-25T03:40:11.217Z,23.47
2018-03-25T03:42:37.355Z,23.00
2018-03-25T03:45:04.288Z,21.80
2018-03-25T03:47:31.462Z,24.47
2018-03-25T03:49:57.671Z,26.40
2018-03-25T03:52:24.569Z,24.60
2018-03-25T03:54:50.777Z,20.80
2018-03-25T03:57:17.025Z,24.70
2018-03-25T03:59:43.361Z,26.47
2018-03-25T04:02:09.692Z,25.90
2018-03-25T04:04:35.944Z,26.47
2018-03-25T04:07:03.060Z,22.10
2018-03-25T04:09:29.267Z,22.27
2018-03-25T04:11:55.578Z,22.53
2018-03-25T04:14:21.959Z,28.60
2018-03-25T04:16:49.666Z,26.07
2018-03-25T04:19:15.860Z,23.67
2018-03-25T04:21:42.782Z,19.53
2018-03-25T04:24:09.442Z,23.77
2018-03-25T04:26:35.711Z,21.47
2018-03-25T04:29:02.618Z,19.37
2018-03-25T04:31:29.520Z,20.57
2018-03-25T04:33:55.758Z,23.10
2018-03-25T04:36:21.897Z,25.03
2018-03-25T04:38:49.645Z,21.80
2018-03-25T04:41:16.071Z,23.97
2018-03-25T04:43:42.510Z,25.27
2018-03-25T04:46:08.811Z,21.00
2018-03-25T04:48:34.992Z,23.17
2018-03-25T04:51:01.974Z,23.80
2018-03-25T04:53:28.210Z,21.57
2018-03-25T04:55:54.557Z,24.87
2018-03-25T04:58:20.715Z,20.63
2018-03-25T05:00:46.964Z,23.33
2018-03-25T05:03:13.196Z,22.87
2018-03-25T05:05:39.394Z,18.77
2018-03-25T05:08:06.606Z,23.63
2018-03-25T05:10:32.814Z,25.70
2018-03-25T05:12:59.160Z,23.27
2018-03-25T05:15:25.336Z,22.43
2018-03-25T05:17:51.558Z,26.87
2018-03-25T05:20:18.531Z,21.80
2018-03-25T05:22:44.728Z,21.30
2018-03-25T05:25:10.947Z,23.80
2018-03-25T05:27:37.883Z,19.27
2018-03-25T05:30:04.866Z,21.63
2018-03-25T05:32:31.044Z,25.30
2018-03-25T05:34:58.135Z,21.27
2018-03-25T05:37:24.358Z,23.30
2018-03-25T05:39:50.728Z,18.20
2018-03-25T05:42:17.065Z,23.80
2018-03-25T05:44:43.356Z,21.87
2018-03-25T05:47:09.738Z,24.03
2018-03-25T05:49:36.634Z,23.57
2018-03-25T05:52:02.920Z,22.50
2018-03-25T05:54:29.849Z,21.17
2018-03-25T05:56:57.641Z,25.00
2018-03-25T05:59:24.027Z,29.00
2018-03-25T06:01:50.329Z,30.23
2018-03-25T06:04:16.543Z,26.87
2018-03-25T06:06:42.708Z,25.93
2018-03-25T06:09:08.961Z,27.70
2018-03-25T06:11:35.908Z,26.60
2018-03-25T06:14:03.030Z,33.30
2018-03-25T06:16:29.301Z,27.50
2018-03-25T06:18:55.551Z,23.67
2018-03-25T06:21:21.790Z,20.80
2018-03-25T06:23:48.036Z,26.67
2018-03-25T06:26:14.296Z,24.63
2018-03-25T06:28:41.285Z,23.70
2018-03-25T06:31:07.560Z,26.10
2018-03-25T06:33:34.552Z,27.37
2018-03-25T06:36:00.774Z,29.97
2018-03-25T06:38:27.053Z,30.07
2018-03-25T06:40:53.461Z,25.07
2018-03-25T06:43:19.696Z,27.73
2018-03-25T06:45:46.625Z,24.83
2018-03-25T06:48:12.830Z,30.23
2018-03-25T06:50:39.118Z,29.37
2018-03-25T06:53:06.096Z,33.37
2018-03-25T06:55:32.332Z,26.27
2018-03-25T06:57:58.607Z,30.53
2018-03-25T07:00:25.565Z,28.17
2018-03-25T07:02:52.666Z,25.87
2018-03-25T07:05:18.920Z,28.63
2018-03-25T07:07:45.140Z,31.73
2018-03-25T07:10:11.482Z,23.63
2018-03-25T07:12:38.432Z,27.90
2018-03-25T07:15:05.760Z,23.90
2018-03-25T07:17:31.961Z,26.30
2018-03-25T07:19:58.154Z,24.50
2018-03-25T07:22:24.406Z,23.80
2018-03-25T07:24:50.592Z,25.10
2018-03-25T07:27:17.562Z,24.47
2018-03-25T07:29:43.768Z,24.60
2018-03-25T07:32:10.104Z,28.97
2018-03-25T07:34:36.335Z,21.33
2018-03-25T07:37:02.660Z,25.37
2018-03-25T07:39:28.889Z,24.90
2018-03-25T07:41:55.192Z,24.73
2018-03-25T07:44:22.224Z,33.93
2018-03-25T07:46:48.434Z,21.53
2018-03-25T07:49:14.699Z,22.67
2018-03-25T07:51:41.853Z,21.87
2018-03-25T07:54:09.059Z,25.33
2018-03-25T07:56:35.515Z,26.00
2018-03-25T07:59:02.457Z,30.63
2018-03-25T08:01:28.705Z,25.87
2018-03-25T08:03:55.704Z,28.57
2018-03-25T08:06:21.969Z,29.43
2018-03-25T08:08:48.940Z,28.07
2018-03-25T08:11:15.135Z,24.17
2018-03-25T08:13:42.124Z,25.20
2018-03-25T08:16:08.381Z,31.50
2018-03-25T08:18:34.761Z,30.53
2018-03-25T08:21:01.250Z,51.97
2018-03-25T08:23:27.570Z,33.87
2018-03-25T08:25:53.791Z,41.97
2018-03-25T08:28:20.132Z,44.47
2018-03-25T08:30:46.785Z,59.83
2018-03-25T08:33:12.968Z,35.83
2018-03-25T08:35:39.193Z,36.20
2018-03-25T08:38:05.417Z,35.67
2018-03-25T08:40:31.640Z,31.23
2018-03-25T08:42:58.104Z,34.13
2018-03-25T08:45:24.549Z,37.23
2018-03-25T08:47:50.859Z,40.27
2018-03-25T08:50:17.107Z,33.03
2018-03-25T08:52:43.466Z,33.40
2018-03-25T08:55:09.718Z,38.87
2018-03-25T08:57:36.022Z,36.93
2018-03-25T09:00:02.327Z,36.90
2018-03-25T09:02:29.332Z,34.07
2018-03-25T09:04:55.613Z,36.63
2018-03-25T09:07:22.596Z,40.00
2018-03-25T09:09:48.850Z,32.63
2018-03-25T09:12:15.965Z,38.93
2018-03-25T09:14:42.385Z,31.53
2018-03-25T09:17:08.688Z,33.90
2018-03-25T09:19:35.691Z,32.90
2018-03-25T09:22:02.336Z,32.90
2018-03-25T09:24:30.346Z,39.77
2018-03-25T09:26:56.732Z,32.17
2018-03-25T09:29:22.986Z,28.50
2018-03-25T09:31:49.255Z,31.00
2018-03-25T09:34:15.564Z,28.77
2018-03-25T09:36:41.800Z,27.90
2018-03-25T09:39:08.029Z,27.60
2018-03-25T09:41:35.223Z,29.93
2018-03-25T09:44:01.453Z,32.67
2018-03-25T09:46:27.671Z,30.47
2018-03-25T09:48:53.855Z,32.07
2018-03-25T09:51:20.257Z,29.10
2018-03-25T09:53:46.514Z,34.63
2018-03-25T09:56:12.789Z,27.20
2018-03-25T09:58:39.071Z,29.27
2018-03-25T10:01:12.280Z,35.43
2018-03-25T10:03:38.570Z,30.50
2018-03-25T10:06:05.589Z,31.70
2018-03-25T10:08:31.810Z,32.47
2018-03-25T10:10:59.672Z,29.30
2018-03-25T10:13:27.324Z,28.10
2018-03-25T10:15:53.616Z,25.97
2018-03-25T10:18:19.923Z,28.07
2018-03-25T10:20:46.948Z,31.87
2018-03-25T10:23:13.910Z,31.90
2018-03-25T10:25:41.022Z,31.17
2018-03-25T10:28:07.299Z,28.40
2018-03-25T10:30:33.554Z,33.00
2018-03-25T10:33:00.941Z,30.00
2018-03-25T10:35:27.219Z,29.60
2018-03-25T10:37:53.885Z,32.23
2018-03-25T10:40:21.072Z,32.60
2018-03-25T10:42:47.252Z,28.47
2018-03-25T10:45:13.483Z,29.57
2018-03-25T10:47:39.780Z,28.57
2018-03-25T10:50:06.744Z,28.37
2018-03-25T10:52:32.953Z,31.50
2018-03-25T10:54:59.227Z,30.47
2018-03-25T10:57:25.548Z,30.63
2018-03-25T10:59:51.836Z,31.97
2018-03-25T11:02:18.235Z,36.27
2018-03-25T11:04:45.977Z,31.40
2018-03-25T11:07:12.424Z,32.03
2018-03-25T11:09:39.504Z,30.63
2018-03-25T11:12:06.476Z,31.47
2018-03-25T11:14:32.977Z,30.80
2018-03-25T11:16:59.897Z,31.17
2018-03-25T11:19:26.168Z,31.93
2018-03-25T11:21:52.448Z,34.10
2018-03-25T11:24:18.756Z,29.30
2018-03-25T11:26:45.002Z,28.53
2018-03-25T11:29:11.325Z,27.67
2018-03-25T11:31:37.570Z,29.33
2018-03-25T11:34:03.825Z,27.20
2018-03-25T11:36:30.776Z,32.50
2018-03-25T11:38:57.005Z,26.90
2018-03-25T11:41:23.187Z,29.90
2018-03-25T11:43:49.432Z,25.37
2018-03-25T11:46:16.425Z,28.57
2018-03-25T11:48:42.669Z,36.03
2018-03-25T11:51:08.964Z,28.23
2018-03-25T11:53:35.393Z,31.30
2018-03-25T11:56:01.792Z,27.93
2018-03-25T11:58:28.068Z,27.43
2018-03-25T12:00:54.321Z,27.73
2018-03-25T12:03:20.623Z,29.93
2018-03-25T12:05:46.845Z,28.60
2018-03-25T12:08:13.069Z,30.30
2018-03-25T12:10:39.427Z,28.20
2018-03-25T12:13:05.897Z,28.20
2018-03-25T12:15:32.121Z,27.40
2018-03-25T12:17:58.722Z,29.50
2018-03-25T12:20:24.925Z,25.70
2018-03-25T12:22:51.213Z,28.00
2018-03-25T12:25:17.523Z,28.73
2018-03-25T12:27:43.787Z,32.20
2018-03-25T12:30:10.896Z,29.67
2018-03-25T12:32:37.739Z,28.03
2018-03-25T12:35:03.944Z,29.00
2018-03-25T12:37:31.593Z,32.27
2018-03-25T12:39:57.891Z,27.00
2018-03-25T12:42:24.894Z,28.47
2018-03-25T12:44:51.190Z,27.90
2018-03-25T12:47:17.624Z,30.53
2018-03-25T12:49:43.882Z,27.20
2018-03-25T12:52:10.096Z,33.50
2018-03-25T12:54:36.351Z,33.57
2018-03-25T12:57:02.749Z,30.40
2018-03-25T12:59:29.230Z,27.53
2018-03-25T13:01:56.038Z,27.73
2018-03-25T13:04:22.384Z,32.07
2018-03-25T13:06:49.118Z,33.37
2018-03-25T13:09:15.456Z,35.53
2018-03-25T13:11:43.308Z,34.10
2018-03-25T13:14:09.534Z,32.70
2018-03-25T13:16:35.792Z,30.47
2018-03-25T13:19:02.953Z,33.50
2018-03-25T13:21:29.208Z,34.03
2018-03-25T13:23:55.582Z,29.43
2018-03-25T13:26:21.855Z,32.20
2018-03-25T13:28:48.311Z,34.83
2018-03-25T13:31:14.606Z,31.80
2018-03-25T13:33:40.903Z,33.10
2018-03-25T13:36:14.070Z,35.87
2018-03-25T13:38:40.340Z,30.47
2018-03-25T13:41:07.471Z,31.33
2018-03-25T13:43:33.703Z,31.03
2018-03-25T13:46:00.700Z,30.80
2018-03-25T13:48:27.051Z,33.03
2018-03-25T13:50:53.491Z,37.50
2018-03-25T13:53:19.960Z,38.87
2018-03-25T13:55:46.934Z,37.37
2018-03-25T13:58:13.161Z,34.43
2018-03-25T14:00:39.624Z,36.00
2018-03-25T14:03:05.871Z,36.23
2018-03-25T14:05:33.729Z,36.00
2018-03-25T14:08:00.019Z,38.57
2018-03-25T14:10:26.284Z,35.27
2018-03-25T14:12:53.169Z,35.50
2018-03-25T14:15:20.384Z,30.80
2018-03-25T14:17:46.926Z,39.90
2018-03-25T14:20:13.171Z,33.20
2018-03-25T14:22:40.272Z,38.03
2018-03-25T14:25:06.494Z,36.90
2018-03-25T14:27:32.958Z,34.30
2018-03-25T14:29:59.295Z,35.67
2018-03-25T14:32:26.417Z,34.70
2018-03-25T14:34:52.601Z,35.33
2018-03-25T14:37:18.874Z,35.00
2018-03-25T14:39:45.915Z,40.93
2018-03-25T14:42:12.234Z,44.23
2018-03-25T14:44:38.620Z,42.97
2018-03-25T14:47:05.623Z,38.27
2018-03-25T14:49:31.952Z,33.50
2018-03-25T14:51:58.462Z,37.83
2018-03-25T14:54:24.735Z,37.67
2018-03-25T14:56:51.142Z,39.47
2018-03-25T14:59:17.428Z,43.37
2018-03-25T15:01:43.871Z,43.10
2018-03-25T15:04:10.322Z,34.40
2018-03-25T15:06:36.520Z,33.63
2018-03-25T15:09:03.620Z,42.10
2018-03-25T15:11:30.057Z,37.17
2018-03-25T15:13:56.580Z,31.90
2018-03-25T15:16:23.275Z,38.07
2018-03-25T15:18:49.662Z,35.10
2018-03-25T15:21:15.931Z,36.70
2018-03-25T15:23:42.157Z,34.03
2018-03-25T15:26:08.443Z,37.33
2018-03-25T15:28:34.650Z,32.70
2018-03-25T15:31:01.108Z,35.77
2018-03-25T15:33:28.249Z,38.33
2018-03-25T15:35:55.141Z,34.10
2018-03-25T15:38:21.405Z,75.20
2018-03-25T15:40:47.597Z,35.83
2018-03-25T15:43:13.918Z,68.20
2018-03-25T15:45:40.229Z,47.80
2018-03-25T15:48:06.577Z,44.67
2018-03-25T15:50:32.900Z,35.90
2018-03-25T15:52:59.254Z,42.70
2018-03-25T15:55:26.374Z,35.10
2018-03-25T15:57:53.481Z,44.27
2018-03-25T16:00:20.469Z,46.03
2018-03-25T16:02:47.999Z,43.93
2018-03-25T16:05:14.965Z,38.73
2018-03-25T16:07:42.123Z,48.20
2018-03-25T16:10:09.220Z,42.37
2018-03-25T16:12:35.384Z,43.00
2018-03-25T16:15:02.506Z,42.27
2018-03-25T16:17:28.908Z,44.13
2018-03-25T16:19:55.078Z,48.33
2018-03-25T16:22:21.385Z,42.33
2018-03-25T16:24:49.155Z,45.40
2018-03-25T16:27:15.425Z,39.70
2018-03-25T16:29:41.742Z,39.20
2018-03-25T16:32:08.846Z,34.90
2018-03-25T16:34:35.201Z,32.47
2018-03-25T16:37:02.248Z,37.13
2018-03-25T16:39:28.815Z,37.70
2018-03-25T16:41:55.115Z,47.90
2018-03-25T16:44:22.258Z,44.93
2018-03-25T16:46:48.547Z,38.33
2018-03-25T16:49:14.860Z,33.37
2018-03-25T16:51:41.190Z,28.10
2018-03-25T16:54:07.890Z,33.43
2018-03-25T16:56:34.870Z,30.60
2018-03-25T16:59:01.143Z,31.73
2018-03-25T17:01:27.350Z,30.50
2018-03-25T17:03:53.616Z,35.03
2018-03-25T17:06:19.940Z,36.37
2018-03-25T17:08:46.966Z,32.10
2018-03-25T17:11:13.208Z,29.43
2018-03-25T17:13:39.836Z,32.07
2018-03-25T17:16:06.053Z,28.20
2018-03-25T17:18:32.394Z,27.30
2018-03-25T17:20:59.391Z,28.43
2018-03-25T17:23:25.718Z,26.27
2018-03-25T17:25:52.048Z,24.33
2018-03-25T17:28:18.356Z,29.70
2018-03-25T17:30:45.419Z,57.50
2018-03-25T17:33:11.628Z,32.37
2018-03-25T17:35:38.641Z,33.10
2018-03-25T17:38:04.982Z,31.87
2018-03-25T17:40:32.169Z,28.00
2018-03-25T17:42:59.372Z,23.33
2018-03-25T17:45:25.604Z,22.17
2018-03-25T17:47:51.910Z,23.77
2018-03-25T17:50:18.216Z,21.20
2018-03-25T17:52:44.464Z,26.30
2018-03-25T17:55:10.770Z,28.33
2018-03-25T17:57:37.043Z,25.43
2018-03-25T18:00:03.256Z,27.27
2018-03-25T18:05:02.644Z,42.93
2018-03-25T18:07:28.914Z,45.00
2018-03-25T18:09:55.133Z,71.60
2018-03-25T18:12:21.440Z,67.60
2018-03-25T18:14:47.953Z,48.10
2018-03-25T18:17:33.465Z,45.17
2018-03-25T18:19:40.557Z,55.60
2018-03-25T18:22:06.793Z,43.20
2018-03-25T18:24:33.188Z,29.90
2018-03-25T18:27:00.117Z,28.17
2018-03-25T18:29:26.456Z,22.73
2018-03-25T18:31:52.824Z,24.87
2018-03-25T18:34:19.832Z,24.77
2018-03-25T18:36:46.055Z,27.13
2018-03-25T18:39:12.236Z,32.10
2018-03-25T18:41:38.513Z,31.53
2018-03-25T18:44:04.741Z,28.07
2018-03-25T18:46:30.991Z,27.77
2018-03-25T18:48:58.156Z,31.67
2018-03-25T18:51:24.401Z,29.70
2018-03-25T18:53:50.582Z,32.77
2018-03-25T18:56:16.994Z,30.80
2018-03-25T18:58:43.236Z,30.83
2018-03-25T19:01:09.529Z,28.20
2018-03-25T19:03:36.993Z,27.47
2018-03-25T19:06:03.398Z,27.23
2018-03-25T19:08:29.723Z,28.50
2018-03-25T19:10:56.054Z,26.20
2018-03-25T19:13:22.310Z,26.07
2018-03-25T19:15:48.680Z,26.13
2018-03-25T19:18:14.975Z,28.57
2018-03-25T19:20:41.462Z,26.10
2018-03-25T19:23:07.783Z,25.13
2018-03-25T19:25:33.944Z,26.73
2018-03-25T19:28:00.973Z,25.80
2018-03-25T19:30:27.322Z,22.87
2018-03-25T19:32:54.373Z,25.70
2018-03-25T19:35:21.420Z,24.20
2018-03-25T19:37:48.385Z,24.03
2018-03-25T19:40:14.694Z,27.33
2018-03-25T19:42:41.905Z,33.13
2018-03-25T19:45:08.212Z,29.43
2018-03-25T19:47:34.584Z,23.20
2018-03-25T19:50:01.706Z,31.13
2018-03-25T19:52:28.042Z,25.63
2018-03-25T19:54:54.311Z,30.23
2018-03-25T19:57:20.704Z,26.77
2018-03-25T19:59:47.079Z,30.57
2018-03-25T20:02:13.327Z,30.60
2018-03-25T20:04:39.617Z,29.60
2018-03-25T20:07:06.652Z,29.53
2018-03-25T20:09:32.905Z,28.60
2018-03-25T20:11:59.905Z,33.50
2018-03-25T20:14:26.288Z,33.37
2018-03-25T20:16:52.662Z,33.97
2018-03-25T20:19:18.943Z,28.00
2018-03-25T20:21:45.296Z,29.53
2018-03-25T20:24:11.954Z,26.43
2018-03-25T20:26:38.341Z,27.33
2018-03-25T20:29:04.640Z,29.23
2018-03-25T20:31:30.868Z,30.87
2018-03-25T20:33:57.509Z,31.13
2018-03-25T20:36:24.458Z,24.50
2018-03-25T20:38:51.526Z,29.20
2018-03-25T20:41:17.855Z,27.97
2018-03-25T20:43:44.153Z,42.33
2018-03-25T20:46:10.389Z,75.27
2018-03-25T20:48:37.453Z,55.43
2018-03-25T20:51:04.439Z,39.33
2018-03-25T20:53:30.672Z,66.97
2018-03-25T20:55:57.896Z,57.37
2018-03-25T20:58:24.253Z,36.30
2018-03-25T21:00:50.532Z,28.70
2018-03-25T21:03:16.973Z,21.60
2018-03-25T21:05:43.228Z,24.17
2018-03-25T21:08:09.497Z,18.80
2018-03-25T21:10:36.623Z,26.07
2018-03-25T21:13:03.005Z,25.10
2018-03-25T21:15:29.231Z,26.73
2018-03-25T21:17:55.482Z,24.23
2018-03-25T21:20:21.724Z,28.20
2018-03-25T21:22:47.991Z,30.83
2018-03-25T21:25:15.059Z,26.73
2018-03-25T21:27:41.249Z,26.20
2018-03-25T21:30:07.479Z,26.00
2018-03-25T21:32:33.760Z,23.90
2018-03-25T21:35:00.021Z,22.97
2018-03-25T21:37:27.009Z,26.87
2018-03-25T21:39:53.239Z,29.33
2018-03-25T21:42:19.490Z,26.60
2018-03-25T21:44:45.732Z,28.90
2018-03-25T21:47:11.900Z,32.33
2018-03-25T21:49:38.851Z,27.00
2018-03-25T21:52:05.844Z,28.10
2018-03-25T21:54:32.899Z,29.87
2018-03-25T21:56:59.162Z,31.57
2018-03-25T21:59:26.184Z,33.67
2018-03-25T22:01:52.450Z,34.63
2018-03-25T22:04:20.413Z,32.90
2018-03-25T22:06:47.472Z,36.00
2018-03-25T22:09:13.851Z,36.43
2018-03-25T22:11:40.143Z,37.43
2018-03-25T22:14:06.669Z,36.83
2018-03-25T22:16:33.948Z,38.33
2018-03-25T22:19:00.490Z,37.43
2018-03-25T22:21:26.731Z,42.40
2018-03-25T22:23:53.766Z,35.33
2018-03-25T22:26:20.020Z,37.27
2018-03-25T22:28:46.963Z,39.13
2018-03-25T22:31:13.385Z,35.07
2018-03-25T22:33:40.312Z,36.23
2018-03-25T22:36:06.643Z,38.83
2018-03-25T22:38:32.852Z,45.40
2018-03-25T22:40:59.084Z,44.53
2018-03-25T22:43:25.276Z,41.10
2018-03-25T22:45:51.404Z,48.57
2018-03-25T22:48:17.654Z,43.07
2018-03-25T22:50:43.884Z,41.57
2018-03-25T22:53:10.144Z,43.00
2018-03-25T22:55:36.348Z,37.83
2018-03-25T22:58:02.530Z,44.70
2018-03-25T23:00:28.795Z,38.10
2018-03-25T23:02:54.969Z,39.40
2018-03-25T23:05:21.948Z,43.43
2018-03-25T23:07:48.411Z,45.73
2018-03-25T23:10:14.741Z,40.17
2018-03-25T23:12:42.403Z,46.80
2018-03-25T23:15:09.854Z,45.03
2018-03-25T23:17:36.046Z,45.00
2018-03-25T23:20:02.349Z,40.57
2018-03-25T23:22:29.444Z,44.70
2018-03-25T23:24:55.653Z,41.70
2018-03-25T23:27:21.857Z,46.47
2018-03-25T23:29:48.033Z,42.73
2018-03-25T23:32:14.320Z,46.63
2018-03-25T23:34:40.580Z,41.03
2018-03-25T23:37:06.884Z,42.33
2018-03-25T23:39:33.097Z,43.67
2018-03-25T23:42:00.026Z,47.13
2018-03-25T23:44:26.982Z,44.60
2018-03-25T23:46:53.207Z,50.10
2018-03-25T23:49:20.178Z,46.60
2018-03-25T23:51:46.436Z,42.60
2018-03-25T23:54:12.706Z,45.70
2018-03-25T23:56:38.929Z,47.77
2018-03-25T23:59:05.949Z,56.50
